sensor_id;sensor_type;location;lat;lon;timestamp;P1;durP1;ratioP1;P2;durP2;ratioP2
22256;SDS011;11297;42.686;23.374;2022-08-21T00:02:19;9.93;;;8.30;;
22256;SDS011;11297;42.686;23.374;2022-08-21T00:04:47;11.63;;;7.70;;
22256;SDS011;11297;42.686;23.374;2022-08-21T00:07:15;7.07;;;5.03;;
22256;SDS011;11297;42.686;23.374;2022-08-21T00:09:41;8.20;;;5.70;;
22256;SDS011;11297;42.686;23.374;2022-08-21T00:12:07;9.93;;;7.23;;
22256;SDS011;11297;42.686;23.374;2022-08-21T00:14:32;8.60;;;7.57;;
22256;SDS011;11297;42.686;23.374;2022-08-21T00:16:59;8.23;;;5.70;;
22256;SDS011;11297;42.686;23.374;2022-08-21T00:19:25;5.20;;;4.70;;
22256;SDS011;11297;42.686;23.374;2022-08-21T00:21:52;7.00;;;4.63;;
22256;SDS011;11297;42.686;23.374;2022-08-21T00:24:18;11.60;;;7.47;;
22256;SDS011;11297;42.686;23.374;2022-08-21T00:26:45;6.47;;;5.13;;
22256;SDS011;11297;42.686;23.374;2022-08-21T00:29:11;6.93;;;4.37;;
22256;SDS011;11297;42.686;23.374;2022-08-21T00:31:38;8.83;;;5.67;;
22256;SDS011;11297;42.686;23.374;2022-08-21T00:34:04;10.13;;;7.87;;
22256;SDS011;11297;42.686;23.374;2022-08-21T00:36:30;8.70;;;7.67;;
22256;SDS011;11297;42.686;23.374;2022-08-21T00:38:56;8.83;;;6.03;;
22256;SDS011;11297;42.686;23.374;2022-08-21T00:41:22;7.90;;;6.70;;
22256;SDS011;11297;42.686;23.374;2022-08-21T00:43:48;7.30;;;6.40;;
22256;SDS011;11297;42.686;23.374;2022-08-21T00:46:15;10.10;;;9.10;;
22256;SDS011;11297;42.686;23.374;2022-08-21T00:48:41;9.47;;;7.47;;
22256;SDS011;11297;42.686;23.374;2022-08-21T00:51:07;11.53;;;9.50;;
22256;SDS011;11297;42.686;23.374;2022-08-21T00:53:37;9.90;;;8.80;;
22256;SDS011;11297;42.686;23.374;2022-08-21T00:56:04;11.10;;;9.07;;
22256;SDS011;11297;42.686;23.374;2022-08-21T00:58:32;11.33;;;10.10;;
22256;SDS011;11297;42.686;23.374;2022-08-21T01:01:01;11.67;;;9.53;;
22256;SDS011;11297;42.686;23.374;2022-08-21T01:03:29;15.87;;;10.37;;
22256;SDS011;11297;42.686;23.374;2022-08-21T01:05:54;14.27;;;11.53;;
22256;SDS011;11297;42.686;23.374;2022-08-21T01:08:20;14.13;;;10.07;;
22256;SDS011;11297;42.686;23.374;2022-08-21T01:10:46;14.40;;;9.33;;
22256;SDS011;11297;42.686;23.374;2022-08-21T01:13:13;16.37;;;10.60;;
22256;SDS011;11297;42.686;23.374;2022-08-21T01:15:42;13.97;;;10.20;;
22256;SDS011;11297;42.686;23.374;2022-08-21T01:18:10;17.70;;;12.13;;
22256;SDS011;11297;42.686;23.374;2022-08-21T01:20:38;15.60;;;11.57;;
22256;SDS011;11297;42.686;23.374;2022-08-21T01:23:08;14.00;;;10.03;;
22256;SDS011;11297;42.686;23.374;2022-08-21T01:25:34;10.53;;;9.33;;
22256;SDS011;11297;42.686;23.374;2022-08-21T01:28:01;9.10;;;6.57;;
22256;SDS011;11297;42.686;23.374;2022-08-21T01:30:31;8.23;;;7.13;;
22256;SDS011;11297;42.686;23.374;2022-08-21T01:33:01;14.00;;;10.40;;
22256;SDS011;11297;42.686;23.374;2022-08-21T01:35:26;13.83;;;10.73;;
22256;SDS011;11297;42.686;23.374;2022-08-21T01:37:52;11.67;;;10.27;;
22256;SDS011;11297;42.686;23.374;2022-08-21T01:40:17;12.50;;;9.80;;
22256;SDS011;11297;42.686;23.374;2022-08-21T01:42:43;12.60;;;10.00;;
22256;SDS011;11297;42.686;23.374;2022-08-21T01:45:10;12.57;;;10.70;;
22256;SDS011;11297;42.686;23.374;2022-08-21T01:47:37;10.30;;;8.20;;
22256;SDS011;11297;42.686;23.374;2022-08-21T01:50:04;10.17;;;8.70;;
22256;SDS011;11297;42.686;23.374;2022-08-21T01:52:33;11.97;;;8.23;;
22256;SDS011;11297;42.686;23.374;2022-08-21T01:54:58;13.07;;;8.80;;
22256;SDS011;11297;42.686;23.374;2022-08-21T01:57:23;10.30;;;8.73;;
22256;SDS011;11297;42.686;23.374;2022-08-21T01:59:49;14.03;;;10.47;;
22256;SDS011;11297;42.686;23.374;2022-08-21T02:02:14;13.20;;;8.50;;
22256;SDS011;11297;42.686;23.374;2022-08-21T02:04:40;10.83;;;8.50;;
22256;SDS011;11297;42.686;23.374;2022-08-21T02:07:05;15.23;;;11.20;;
22256;SDS011;11297;42.686;23.374;2022-08-21T02:09:31;20.93;;;15.67;;
22256;SDS011;11297;42.686;23.374;2022-08-21T02:11:57;13.27;;;11.53;;
22256;SDS011;11297;42.686;23.374;2022-08-21T02:14:22;16.13;;;12.50;;
22256;SDS011;11297;42.686;23.374;2022-08-21T02:16:48;15.47;;;10.93;;
22256;SDS011;11297;42.686;23.374;2022-08-21T02:19:14;13.50;;;12.03;;
22256;SDS011;11297;42.686;23.374;2022-08-21T02:21:40;15.73;;;13.13;;
22256;SDS011;11297;42.686;23.374;2022-08-21T02:24:07;18.60;;;14.27;;
22256;SDS011;11297;42.686;23.374;2022-08-21T02:26:33;18.07;;;15.03;;
22256;SDS011;11297;42.686;23.374;2022-08-21T02:28:58;15.07;;;12.80;;
22256;SDS011;11297;42.686;23.374;2022-08-21T02:31:24;15.40;;;13.03;;
22256;SDS011;11297;42.686;23.374;2022-08-21T02:33:50;11.77;;;9.50;;
22256;SDS011;11297;42.686;23.374;2022-08-21T02:36:16;22.70;;;18.77;;
22256;SDS011;11297;42.686;23.374;2022-08-21T02:38:42;21.87;;;18.00;;
22256;SDS011;11297;42.686;23.374;2022-08-21T02:41:11;21.47;;;18.03;;
22256;SDS011;11297;42.686;23.374;2022-08-21T02:43:39;21.47;;;17.43;;
22256;SDS011;11297;42.686;23.374;2022-08-21T02:46:06;21.63;;;15.27;;
22256;SDS011;11297;42.686;23.374;2022-08-21T02:48:32;15.77;;;12.40;;
22256;SDS011;11297;42.686;23.374;2022-08-21T02:51:00;21.17;;;14.37;;
22256;SDS011;11297;42.686;23.374;2022-08-21T02:53:31;21.90;;;17.90;;
22256;SDS011;11297;42.686;23.374;2022-08-21T02:55:59;15.50;;;12.63;;
22256;SDS011;11297;42.686;23.374;2022-08-21T02:58:28;11.87;;;10.13;;
22256;SDS011;11297;42.686;23.374;2022-08-21T03:00:56;10.90;;;8.93;;
22256;SDS011;11297;42.686;23.374;2022-08-21T03:03:23;10.00;;;7.70;;
22256;SDS011;11297;42.686;23.374;2022-08-21T03:05:49;12.63;;;10.47;;
22256;SDS011;11297;42.686;23.374;2022-08-21T03:08:15;15.63;;;11.83;;
22256;SDS011;11297;42.686;23.374;2022-08-21T03:10:41;17.20;;;11.47;;
22256;SDS011;11297;42.686;23.374;2022-08-21T03:13:09;13.77;;;10.07;;
22256;SDS011;11297;42.686;23.374;2022-08-21T03:15:35;9.50;;;7.70;;
22256;SDS011;11297;42.686;23.374;2022-08-21T03:18:01;8.30;;;7.23;;
22256;SDS011;11297;42.686;23.374;2022-08-21T03:20:27;17.30;;;11.20;;
22256;SDS011;11297;42.686;23.374;2022-08-21T03:22:53;18.43;;;14.53;;
22256;SDS011;11297;42.686;23.374;2022-08-21T03:25:23;16.57;;;14.13;;
22256;SDS011;11297;42.686;23.374;2022-08-21T03:27:50;17.60;;;13.20;;
22256;SDS011;11297;42.686;23.374;2022-08-21T03:30:17;8.57;;;7.67;;
22256;SDS011;11297;42.686;23.374;2022-08-21T03:32:45;10.90;;;9.73;;
22256;SDS011;11297;42.686;23.374;2022-08-21T03:35:11;12.73;;;10.77;;
22256;SDS011;11297;42.686;23.374;2022-08-21T03:37:37;14.37;;;10.17;;
22256;SDS011;11297;42.686;23.374;2022-08-21T03:40:05;15.93;;;10.67;;
22256;SDS011;11297;42.686;23.374;2022-08-21T03:42:32;13.47;;;9.03;;
22256;SDS011;11297;42.686;23.374;2022-08-21T03:44:57;6.27;;;4.93;;
22256;SDS011;11297;42.686;23.374;2022-08-21T03:47:23;8.53;;;6.37;;
22256;SDS011;11297;42.686;23.374;2022-08-21T03:49:48;12.67;;;9.17;;
22256;SDS011;11297;42.686;23.374;2022-08-21T03:52:14;6.90;;;5.27;;
22256;SDS011;11297;42.686;23.374;2022-08-21T03:54:41;5.60;;;4.50;;
22256;SDS011;11297;42.686;23.374;2022-08-21T03:57:07;11.87;;;8.03;;
22256;SDS011;11297;42.686;23.374;2022-08-21T03:59:33;8.03;;;5.53;;
22256;SDS011;11297;42.686;23.374;2022-08-21T04:02:00;9.10;;;7.03;;
22256;SDS011;11297;42.686;23.374;2022-08-21T04:04:29;8.10;;;5.57;;
22256;SDS011;11297;42.686;23.374;2022-08-21T04:06:55;10.33;;;6.93;;
22256;SDS011;11297;42.686;23.374;2022-08-21T04:09:21;9.43;;;7.37;;
22256;SDS011;11297;42.686;23.374;2022-08-21T04:11:48;6.90;;;5.07;;
22256;SDS011;11297;42.686;23.374;2022-08-21T04:14:14;9.03;;;5.40;;
22256;SDS011;11297;42.686;23.374;2022-08-21T04:16:40;12.27;;;7.97;;
22256;SDS011;11297;42.686;23.374;2022-08-21T04:19:07;7.80;;;6.27;;
22256;SDS011;11297;42.686;23.374;2022-08-21T04:21:33;9.23;;;7.77;;
22256;SDS011;11297;42.686;23.374;2022-08-21T04:23:58;8.20;;;6.63;;
22256;SDS011;11297;42.686;23.374;2022-08-21T04:26:24;11.50;;;9.27;;
22256;SDS011;11297;42.686;23.374;2022-08-21T04:28:51;6.13;;;3.83;;
22256;SDS011;11297;42.686;23.374;2022-08-21T04:31:17;9.37;;;8.20;;
22256;SDS011;11297;42.686;23.374;2022-08-21T04:33:43;7.80;;;6.47;;
22256;SDS011;11297;42.686;23.374;2022-08-21T04:36:09;8.70;;;7.80;;
22256;SDS011;11297;42.686;23.374;2022-08-21T04:38:35;10.33;;;7.33;;
22256;SDS011;11297;42.686;23.374;2022-08-21T04:41:01;12.27;;;9.20;;
22256;SDS011;11297;42.686;23.374;2022-08-21T04:43:27;10.87;;;8.60;;
22256;SDS011;11297;42.686;23.374;2022-08-21T04:45:53;8.87;;;7.67;;
22256;SDS011;11297;42.686;23.374;2022-08-21T04:48:20;10.63;;;8.90;;
22256;SDS011;11297;42.686;23.374;2022-08-21T04:50:49;16.03;;;10.83;;
22256;SDS011;11297;42.686;23.374;2022-08-21T04:53:37;14.57;;;10.87;;
22256;SDS011;11297;42.686;23.374;2022-08-21T04:56:02;14.90;;;11.93;;
22256;SDS011;11297;42.686;23.374;2022-08-21T04:58:33;13.60;;;11.87;;
22256;SDS011;11297;42.686;23.374;2022-08-21T05:01:00;11.20;;;9.87;;
22256;SDS011;11297;42.686;23.374;2022-08-21T05:03:26;8.70;;;7.80;;
22256;SDS011;11297;42.686;23.374;2022-08-21T05:05:53;8.20;;;6.47;;
22256;SDS011;11297;42.686;23.374;2022-08-21T05:08:19;10.83;;;9.40;;
22256;SDS011;11297;42.686;23.374;2022-08-21T05:10:48;15.73;;;11.37;;
22256;SDS011;11297;42.686;23.374;2022-08-21T05:13:14;15.53;;;11.00;;
22256;SDS011;11297;42.686;23.374;2022-08-21T05:15:41;10.57;;;7.77;;
22256;SDS011;11297;42.686;23.374;2022-08-21T05:18:07;8.87;;;7.80;;
22256;SDS011;11297;42.686;23.374;2022-08-21T05:20:33;8.97;;;7.60;;
22256;SDS011;11297;42.686;23.374;2022-08-21T05:23:06;9.00;;;7.00;;
22256;SDS011;11297;42.686;23.374;2022-08-21T05:25:36;12.30;;;9.40;;
22256;SDS011;11297;42.686;23.374;2022-08-21T05:28:02;11.00;;;9.77;;
22256;SDS011;11297;42.686;23.374;2022-08-21T05:30:28;8.70;;;7.60;;
22256;SDS011;11297;42.686;23.374;2022-08-21T05:32:58;12.13;;;10.07;;
22256;SDS011;11297;42.686;23.374;2022-08-21T05:35:24;11.10;;;10.00;;
22256;SDS011;11297;42.686;23.374;2022-08-21T05:37:51;16.03;;;12.07;;
22256;SDS011;11297;42.686;23.374;2022-08-21T05:40:16;14.20;;;12.10;;
22256;SDS011;11297;42.686;23.374;2022-08-21T05:42:42;14.03;;;12.37;;
22256;SDS011;11297;42.686;23.374;2022-08-21T05:45:08;13.03;;;9.93;;
22256;SDS011;11297;42.686;23.374;2022-08-21T05:47:33;14.73;;;10.93;;
22256;SDS011;11297;42.686;23.374;2022-08-21T05:49:59;13.73;;;9.90;;
22256;SDS011;11297;42.686;23.374;2022-08-21T05:52:24;14.07;;;11.20;;
22256;SDS011;11297;42.686;23.374;2022-08-21T05:54:50;11.93;;;9.50;;
22256;SDS011;11297;42.686;23.374;2022-08-21T05:57:18;10.10;;;8.57;;
22256;SDS011;11297;42.686;23.374;2022-08-21T05:59:44;11.37;;;10.03;;
22256;SDS011;11297;42.686;23.374;2022-08-21T06:02:10;11.03;;;9.80;;
22256;SDS011;11297;42.686;23.374;2022-08-21T06:04:36;15.57;;;9.93;;
22256;SDS011;11297;42.686;23.374;2022-08-21T06:07:05;10.87;;;9.23;;
22256;SDS011;11297;42.686;23.374;2022-08-21T06:09:32;11.17;;;9.70;;
22256;SDS011;11297;42.686;23.374;2022-08-21T06:11:58;15.30;;;11.23;;
22256;SDS011;11297;42.686;23.374;2022-08-21T06:14:23;12.40;;;11.10;;
22256;SDS011;11297;42.686;23.374;2022-08-21T06:16:49;13.37;;;11.13;;
22256;SDS011;11297;42.686;23.374;2022-08-21T06:19:14;14.10;;;10.40;;
22256;SDS011;11297;42.686;23.374;2022-08-21T06:21:39;12.67;;;11.00;;
22256;SDS011;11297;42.686;23.374;2022-08-21T06:24:05;11.73;;;10.27;;
22256;SDS011;11297;42.686;23.374;2022-08-21T06:26:31;11.77;;;10.27;;
22256;SDS011;11297;42.686;23.374;2022-08-21T06:28:57;15.20;;;11.13;;
22256;SDS011;11297;42.686;23.374;2022-08-21T06:31:24;14.67;;;10.57;;
22256;SDS011;11297;42.686;23.374;2022-08-21T06:33:51;13.27;;;9.57;;
22256;SDS011;11297;42.686;23.374;2022-08-21T06:36:18;12.23;;;9.93;;
22256;SDS011;11297;42.686;23.374;2022-08-21T06:38:45;12.97;;;9.20;;
22256;SDS011;11297;42.686;23.374;2022-08-21T06:41:11;13.40;;;10.60;;
22256;SDS011;11297;42.686;23.374;2022-08-21T06:43:37;9.93;;;8.50;;
22256;SDS011;11297;42.686;23.374;2022-08-21T06:46:02;11.27;;;8.70;;
22256;SDS011;11297;42.686;23.374;2022-08-21T06:48:28;9.17;;;8.17;;
22256;SDS011;11297;42.686;23.374;2022-08-21T06:50:55;9.93;;;8.13;;
22256;SDS011;11297;42.686;23.374;2022-08-21T06:53:21;9.20;;;7.30;;
22256;SDS011;11297;42.686;23.374;2022-08-21T06:55:47;13.67;;;7.50;;
22256;SDS011;11297;42.686;23.374;2022-08-21T06:58:13;10.77;;;7.50;;
22256;SDS011;11297;42.686;23.374;2022-08-21T07:00:40;10.17;;;7.90;;
22256;SDS011;11297;42.686;23.374;2022-08-21T07:03:07;11.20;;;7.60;;
22256;SDS011;11297;42.686;23.374;2022-08-21T07:05:40;9.47;;;7.20;;
22256;SDS011;11297;42.686;23.374;2022-08-21T07:08:05;11.13;;;7.90;;
22256;SDS011;11297;42.686;23.374;2022-08-21T07:10:31;12.03;;;8.10;;
22256;SDS011;11297;42.686;23.374;2022-08-21T07:12:56;10.13;;;8.33;;
22256;SDS011;11297;42.686;23.374;2022-08-21T07:15:22;7.73;;;5.90;;
22256;SDS011;11297;42.686;23.374;2022-08-21T07:17:47;8.77;;;6.67;;
22256;SDS011;11297;42.686;23.374;2022-08-21T07:20:12;6.47;;;5.80;;
22256;SDS011;11297;42.686;23.374;2022-08-21T07:22:38;7.37;;;5.90;;
22256;SDS011;11297;42.686;23.374;2022-08-21T07:25:05;9.87;;;6.90;;
22256;SDS011;11297;42.686;23.374;2022-08-21T07:27:31;7.33;;;6.17;;
22256;SDS011;11297;42.686;23.374;2022-08-21T07:29:57;9.47;;;7.80;;
22256;SDS011;11297;42.686;23.374;2022-08-21T07:32:23;9.73;;;7.57;;
22256;SDS011;11297;42.686;23.374;2022-08-21T07:34:49;9.00;;;6.67;;
22256;SDS011;11297;42.686;23.374;2022-08-21T07:37:14;9.83;;;6.83;;
22256;SDS011;11297;42.686;23.374;2022-08-21T07:39:40;8.57;;;5.80;;
22256;SDS011;11297;42.686;23.374;2022-08-21T07:42:05;7.43;;;5.93;;
22256;SDS011;11297;42.686;23.374;2022-08-21T07:44:31;10.87;;;6.23;;
22256;SDS011;11297;42.686;23.374;2022-08-21T07:46:56;10.83;;;6.00;;
22256;SDS011;11297;42.686;23.374;2022-08-21T07:49:22;12.37;;;6.63;;
22256;SDS011;11297;42.686;23.374;2022-08-21T07:51:47;11.70;;;7.10;;
22256;SDS011;11297;42.686;23.374;2022-08-21T07:54:12;9.53;;;6.07;;
22256;SDS011;11297;42.686;23.374;2022-08-21T07:56:38;10.53;;;5.40;;
22256;SDS011;11297;42.686;23.374;2022-08-21T07:59:03;8.57;;;6.10;;
22256;SDS011;11297;42.686;23.374;2022-08-21T08:01:29;7.30;;;5.83;;
22256;SDS011;11297;42.686;23.374;2022-08-21T08:03:55;7.83;;;6.37;;
22256;SDS011;11297;42.686;23.374;2022-08-21T08:06:21;7.30;;;6.13;;
22256;SDS011;11297;42.686;23.374;2022-08-21T08:08:46;10.33;;;7.07;;
22256;SDS011;11297;42.686;23.374;2022-08-21T08:11:12;9.80;;;6.37;;
22256;SDS011;11297;42.686;23.374;2022-08-21T08:13:44;12.03;;;8.00;;
22256;SDS011;11297;42.686;23.374;2022-08-21T08:16:14;8.20;;;6.63;;
22256;SDS011;11297;42.686;23.374;2022-08-21T08:18:40;8.83;;;6.50;;
22256;SDS011;11297;42.686;23.374;2022-08-21T08:21:07;11.50;;;8.00;;
22256;SDS011;11297;42.686;23.374;2022-08-21T08:23:33;10.93;;;7.83;;
22256;SDS011;11297;42.686;23.374;2022-08-21T08:25:59;9.93;;;6.60;;
22256;SDS011;11297;42.686;23.374;2022-08-21T08:28:27;8.00;;;6.57;;
22256;SDS011;11297;42.686;23.374;2022-08-21T08:30:53;9.33;;;6.90;;
22256;SDS011;11297;42.686;23.374;2022-08-21T08:33:18;10.30;;;7.13;;
22256;SDS011;11297;42.686;23.374;2022-08-21T08:35:45;7.87;;;7.07;;
22256;SDS011;11297;42.686;23.374;2022-08-21T08:38:13;11.60;;;7.40;;
22256;SDS011;11297;42.686;23.374;2022-08-21T08:40:45;10.40;;;6.77;;
22256;SDS011;11297;42.686;23.374;2022-08-21T08:43:12;11.57;;;7.87;;
22256;SDS011;11297;42.686;23.374;2022-08-21T08:45:39;12.47;;;7.73;;
22256;SDS011;11297;42.686;23.374;2022-08-21T08:48:10;10.70;;;8.87;;
22256;SDS011;11297;42.686;23.374;2022-08-21T08:53:18;11.03;;;8.40;;
22256;SDS011;11297;42.686;23.374;2022-08-21T08:55:49;10.03;;;7.93;;
22256;SDS011;11297;42.686;23.374;2022-08-21T09:00:52;10.80;;;8.30;;
22256;SDS011;11297;42.686;23.374;2022-08-21T09:03:20;11.93;;;8.13;;
22256;SDS011;11297;42.686;23.374;2022-08-21T09:05:50;8.97;;;7.37;;
22256;SDS011;11297;42.686;23.374;2022-08-21T09:11:17;10.43;;;6.70;;
22256;SDS011;11297;42.686;23.374;2022-08-21T09:14:12;7.57;;;5.07;;
22256;SDS011;11297;42.686;23.374;2022-08-21T09:17:04;9.07;;;7.30;;
22256;SDS011;11297;42.686;23.374;2022-08-21T09:19:53;15.97;;;7.43;;
22256;SDS011;11297;42.686;23.374;2022-08-21T09:25:30;10.00;;;6.50;;
22256;SDS011;11297;42.686;23.374;2022-08-21T09:27:58;7.43;;;6.60;;
22256;SDS011;11297;42.686;23.374;2022-08-21T09:30:26;10.20;;;6.30;;
22256;SDS011;11297;42.686;23.374;2022-08-21T09:32:56;7.87;;;6.83;;
22256;SDS011;11297;42.686;23.374;2022-08-21T09:35:22;8.00;;;6.43;;
22256;SDS011;11297;42.686;23.374;2022-08-21T09:38:03;7.43;;;6.57;;
22256;SDS011;11297;42.686;23.374;2022-08-21T09:43:17;10.47;;;6.80;;
22256;SDS011;11297;42.686;23.374;2022-08-21T09:45:44;7.77;;;5.40;;
22256;SDS011;11297;42.686;23.374;2022-08-21T09:48:17;11.07;;;7.23;;
22256;SDS011;11297;42.686;23.374;2022-08-21T09:50:44;8.10;;;6.50;;
22256;SDS011;11297;42.686;23.374;2022-08-21T09:53:30;6.20;;;4.97;;
22256;SDS011;11297;42.686;23.374;2022-08-21T09:55:57;7.33;;;5.50;;
22256;SDS011;11297;42.686;23.374;2022-08-21T09:58:48;8.70;;;5.80;;
22256;SDS011;11297;42.686;23.374;2022-08-21T10:01:20;8.73;;;6.33;;
22256;SDS011;11297;42.686;23.374;2022-08-21T10:03:47;7.40;;;6.33;;
22256;SDS011;11297;42.686;23.374;2022-08-21T10:06:23;8.87;;;6.93;;
22256;SDS011;11297;42.686;23.374;2022-08-21T10:09:02;10.00;;;7.00;;
22256;SDS011;11297;42.686;23.374;2022-08-21T10:11:35;15.27;;;11.13;;
22256;SDS011;11297;42.686;23.374;2022-08-21T10:14:07;12.63;;;7.73;;
22256;SDS011;11297;42.686;23.374;2022-08-21T10:22:33;7.83;;;6.17;;
22256;SDS011;11297;42.686;23.374;2022-08-21T10:33:42;7.33;;;6.00;;
22256;SDS011;11297;42.686;23.374;2022-08-21T10:47:55;6.27;;;5.20;;
22256;SDS011;11297;42.686;23.374;2022-08-21T10:50:32;11.70;;;5.90;;
22256;SDS011;11297;42.686;23.374;2022-08-21T10:59:07;9.67;;;5.53;;
22256;SDS011;11297;42.686;23.374;2022-08-21T11:01:49;7.67;;;4.20;;
22256;SDS011;11297;42.686;23.374;2022-08-21T11:04:26;7.73;;;4.50;;
22256;SDS011;11297;42.686;23.374;2022-08-21T11:06:58;5.83;;;4.37;;
22256;SDS011;11297;42.686;23.374;2022-08-21T11:09:45;10.03;;;5.60;;
22256;SDS011;11297;42.686;23.374;2022-08-21T11:23:41;8.30;;;4.43;;
22256;SDS011;11297;42.686;23.374;2022-08-21T11:26:19;7.83;;;4.60;;
22256;SDS011;11297;42.686;23.374;2022-08-21T11:28:55;6.00;;;5.10;;
22256;SDS011;11297;42.686;23.374;2022-08-21T11:47:33;9.07;;;5.17;;
22256;SDS011;11297;42.686;23.374;2022-08-21T11:50:27;8.40;;;5.33;;
22256;SDS011;11297;42.686;23.374;2022-08-21T11:53:08;7.40;;;5.27;;
22256;SDS011;11297;42.686;23.374;2022-08-21T11:56:02;7.73;;;5.10;;
22256;SDS011;11297;42.686;23.374;2022-08-21T11:58:41;6.40;;;5.77;;
22256;SDS011;11297;42.686;23.374;2022-08-21T12:01:20;5.03;;;4.20;;
22256;SDS011;11297;42.686;23.374;2022-08-21T12:06:33;5.97;;;4.97;;
22256;SDS011;11297;42.686;23.374;2022-08-21T12:09:08;7.00;;;5.43;;
22256;SDS011;11297;42.686;23.374;2022-08-21T12:11:46;5.63;;;5.13;;
22256;SDS011;11297;42.686;23.374;2022-08-21T12:14:15;6.63;;;4.97;;
22256;SDS011;11297;42.686;23.374;2022-08-21T12:16:46;6.57;;;5.60;;
22256;SDS011;11297;42.686;23.374;2022-08-21T12:24:30;7.03;;;5.07;;
22256;SDS011;11297;42.686;23.374;2022-08-21T12:27:19;6.20;;;5.00;;
22256;SDS011;11297;42.686;23.374;2022-08-21T12:30:00;8.13;;;5.90;;
22256;SDS011;11297;42.686;23.374;2022-08-21T12:35:14;6.00;;;4.77;;
22256;SDS011;11297;42.686;23.374;2022-08-21T12:37:46;8.30;;;5.20;;
22256;SDS011;11297;42.686;23.374;2022-08-21T12:40:22;7.87;;;5.63;;
22256;SDS011;11297;42.686;23.374;2022-08-21T12:42:54;8.13;;;4.97;;
22256;SDS011;11297;42.686;23.374;2022-08-21T12:45:32;5.43;;;4.93;;
22256;SDS011;11297;42.686;23.374;2022-08-21T12:48:45;6.83;;;5.00;;
22256;SDS011;11297;42.686;23.374;2022-08-21T12:50:53;6.13;;;4.97;;
22256;SDS011;11297;42.686;23.374;2022-08-21T12:56:10;4.37;;;3.97;;
22256;SDS011;11297;42.686;23.374;2022-08-21T12:58:40;7.27;;;5.53;;
22256;SDS011;11297;42.686;23.374;2022-08-21T13:04:12;6.20;;;4.90;;
22256;SDS011;11297;42.686;23.374;2022-08-21T13:06:45;5.50;;;4.87;;
22256;SDS011;11297;42.686;23.374;2022-08-21T13:09:13;5.67;;;4.90;;
22256;SDS011;11297;42.686;23.374;2022-08-21T13:11:42;7.17;;;5.53;;
22256;SDS011;11297;42.686;23.374;2022-08-21T13:14:17;6.53;;;4.50;;
22256;SDS011;11297;42.686;23.374;2022-08-21T13:16:56;5.20;;;4.70;;
22256;SDS011;11297;42.686;23.374;2022-08-21T13:19:23;5.87;;;4.97;;
22256;SDS011;11297;42.686;23.374;2022-08-21T13:21:49;6.50;;;5.03;;
22256;SDS011;11297;42.686;23.374;2022-08-21T13:24:23;8.33;;;5.33;;
22256;SDS011;11297;42.686;23.374;2022-08-21T13:26:49;7.73;;;5.33;;
22256;SDS011;11297;42.686;23.374;2022-08-21T13:29:16;5.80;;;5.20;;
22256;SDS011;11297;42.686;23.374;2022-08-21T13:31:54;6.50;;;4.73;;
22256;SDS011;11297;42.686;23.374;2022-08-21T13:34:25;6.27;;;5.23;;
22256;SDS011;11297;42.686;23.374;2022-08-21T13:36:55;6.27;;;4.60;;
22256;SDS011;11297;42.686;23.374;2022-08-21T13:39:24;6.03;;;4.63;;
22256;SDS011;11297;42.686;23.374;2022-08-21T13:41:52;6.40;;;4.43;;
22256;SDS011;11297;42.686;23.374;2022-08-21T13:44:23;8.17;;;4.60;;
22256;SDS011;11297;42.686;23.374;2022-08-21T13:46:56;6.23;;;4.47;;
22256;SDS011;11297;42.686;23.374;2022-08-21T13:49:29;5.77;;;4.70;;
22256;SDS011;11297;42.686;23.374;2022-08-21T13:51:57;5.87;;;4.30;;
22256;SDS011;11297;42.686;23.374;2022-08-21T13:54:27;7.97;;;4.43;;
22256;SDS011;11297;42.686;23.374;2022-08-21T13:56:58;9.13;;;5.40;;
22256;SDS011;11297;42.686;23.374;2022-08-21T13:59:25;7.87;;;4.83;;
22256;SDS011;11297;42.686;23.374;2022-08-21T14:01:53;5.67;;;4.30;;
22256;SDS011;11297;42.686;23.374;2022-08-21T14:04:48;6.63;;;4.27;;
22256;SDS011;11297;42.686;23.374;2022-08-21T14:07:16;8.50;;;5.27;;
22256;SDS011;11297;42.686;23.374;2022-08-21T14:09:45;6.30;;;4.50;;
22256;SDS011;11297;42.686;23.374;2022-08-21T14:12:13;7.97;;;5.27;;
22256;SDS011;11297;42.686;23.374;2022-08-21T14:14:48;7.07;;;5.00;;
22256;SDS011;11297;42.686;23.374;2022-08-21T14:17:14;6.20;;;4.40;;
22256;SDS011;11297;42.686;23.374;2022-08-21T14:19:52;7.93;;;4.90;;
22256;SDS011;11297;42.686;23.374;2022-08-21T14:22:37;6.87;;;5.67;;
22256;SDS011;11297;42.686;23.374;2022-08-21T14:25:07;7.17;;;5.40;;
22256;SDS011;11297;42.686;23.374;2022-08-21T14:27:36;7.50;;;4.87;;
22256;SDS011;11297;42.686;23.374;2022-08-21T14:32:53;7.23;;;4.77;;
22256;SDS011;11297;42.686;23.374;2022-08-21T14:35:19;5.73;;;5.13;;
22256;SDS011;11297;42.686;23.374;2022-08-21T14:37:46;5.00;;;4.50;;
22256;SDS011;11297;42.686;23.374;2022-08-21T14:40:12;8.13;;;5.43;;
22256;SDS011;11297;42.686;23.374;2022-08-21T14:42:39;5.67;;;5.03;;
22256;SDS011;11297;42.686;23.374;2022-08-21T14:45:16;6.63;;;4.77;;
22256;SDS011;11297;42.686;23.374;2022-08-21T14:47:53;5.53;;;4.43;;
22256;SDS011;11297;42.686;23.374;2022-08-21T14:50:19;5.47;;;4.97;;
22256;SDS011;11297;42.686;23.374;2022-08-21T14:52:45;7.93;;;4.50;;
22256;SDS011;11297;42.686;23.374;2022-08-21T14:55:11;5.53;;;4.33;;
22256;SDS011;11297;42.686;23.374;2022-08-21T14:57:39;9.53;;;5.40;;
22256;SDS011;11297;42.686;23.374;2022-08-21T15:00:10;6.57;;;5.07;;
22256;SDS011;11297;42.686;23.374;2022-08-21T15:02:38;7.20;;;5.40;;
22256;SDS011;11297;42.686;23.374;2022-08-21T15:05:04;5.93;;;5.00;;
22256;SDS011;11297;42.686;23.374;2022-08-21T15:07:30;7.97;;;5.10;;
22256;SDS011;11297;42.686;23.374;2022-08-21T15:09:55;8.37;;;5.87;;
22256;SDS011;11297;42.686;23.374;2022-08-21T15:12:21;5.83;;;5.17;;
22256;SDS011;11297;42.686;23.374;2022-08-21T15:14:47;10.90;;;5.80;;
22256;SDS011;11297;42.686;23.374;2022-08-21T15:17:13;7.40;;;5.40;;
22256;SDS011;11297;42.686;23.374;2022-08-21T15:19:38;10.10;;;5.63;;
22256;SDS011;11297;42.686;23.374;2022-08-21T15:22:04;8.40;;;5.70;;
22256;SDS011;11297;42.686;23.374;2022-08-21T15:24:30;10.63;;;5.80;;
22256;SDS011;11297;42.686;23.374;2022-08-21T15:26:56;8.23;;;5.50;;
22256;SDS011;11297;42.686;23.374;2022-08-21T15:29:25;6.00;;;4.83;;
22256;SDS011;11297;42.686;23.374;2022-08-21T15:31:58;6.20;;;4.97;;
22256;SDS011;11297;42.686;23.374;2022-08-21T15:34:26;7.03;;;5.30;;
22256;SDS011;11297;42.686;23.374;2022-08-21T15:36:57;7.47;;;5.23;;
22256;SDS011;11297;42.686;23.374;2022-08-21T15:39:23;7.87;;;5.37;;
22256;SDS011;11297;42.686;23.374;2022-08-21T15:41:50;5.50;;;5.00;;
22256;SDS011;11297;42.686;23.374;2022-08-21T15:44:15;6.90;;;5.23;;
22256;SDS011;11297;42.686;23.374;2022-08-21T15:46:41;9.00;;;6.03;;
22256;SDS011;11297;42.686;23.374;2022-08-21T15:49:07;6.70;;;6.00;;
22256;SDS011;11297;42.686;23.374;2022-08-21T15:51:33;7.33;;;6.10;;
22256;SDS011;11297;42.686;23.374;2022-08-21T15:53:59;8.10;;;5.70;;
22256;SDS011;11297;42.686;23.374;2022-08-21T15:56:26;7.27;;;6.53;;
22256;SDS011;11297;42.686;23.374;2022-08-21T15:59:07;9.37;;;5.23;;
22256;SDS011;11297;42.686;23.374;2022-08-21T16:01:34;9.87;;;5.83;;
22256;SDS011;11297;42.686;23.374;2022-08-21T16:04:01;7.30;;;5.80;;
22256;SDS011;11297;42.686;23.374;2022-08-21T16:06:27;8.37;;;5.50;;
22256;SDS011;11297;42.686;23.374;2022-08-21T16:08:53;10.30;;;6.23;;